sensor_id;sensor_type;location;lat;lon;timestamp;pressure;altitude;pressure_sealevel;temperature;humidity
15444;BME280;7822;48.146;11.576;2022-10-16T00:01:43;95477.22;;;17.21;75.11
15444;BME280;7822;48.146;11.576;2022-10-16T00:04:11;95477.09;;;17.31;74.52
15444;BME280;7822;48.146;11.576;2022-10-16T00:06:39;95480.19;;;17.26;74.87
15444;BME280;7822;48.146;11.576;2022-10-16T00:09:08;95483.56;;;17.11;75.12
15444;BME280;7822;48.146;11.576;2022-10-16T00:11:41;95486.28;;;17.01;75.86
15444;BME280;7822;48.146;11.576;2022-10-16T00:14:11;95482.28;;;16.89;76.03
15444;BME280;7822;48.146;11.576;2022-10-16T00:16:43;95486.25;;;16.67;76.53
15444;BME280;7822;48.146;11.576;2022-10-16T00:19:11;95481.25;;;16.56;77.29
15444;BME280;7822;48.146;11.576;2022-10-16T00:21:39;95483.88;;;16.56;77.81
15444;BME280;7822;48.146;11.576;2022-10-16T00:24:08;95489.63;;;16.85;76.55
15444;BME280;7822;48.146;11.576;2022-10-16T00:26:37;95482.78;;;16.92;76.18
15444;BME280;7822;48.146;11.576;2022-10-16T00:29:06;95474.56;;;17.13;75.17
15444;BME280;7822;48.146;11.576;2022-10-16T00:31:34;95477.88;;;17.23;74.28
15444;BME280;7822;48.146;11.576;2022-10-16T00:34:04;95486.47;;;17.08;74.91
15444;BME280;7822;48.146;11.576;2022-10-16T00:36:31;95481.97;;;17.18;74.74
15444;BME280;7822;48.146;11.576;2022-10-16T00:38:59;95483.91;;;17.16;74.53
15444;BME280;7822;48.146;11.576;2022-10-16T00:41:29;95479.00;;;17.21;74.07
15444;BME280;7822;48.146;11.576;2022-10-16T00:43:58;95476.34;;;17.13;74.14
15444;BME280;7822;48.146;11.576;2022-10-16T00:46:29;95476.31;;;17.04;74.70
15444;BME280;7822;48.146;11.576;2022-10-16T00:49:00;95479.78;;;17.05;74.47
15444;BME280;7822;48.146;11.576;2022-10-16T00:51:34;95483.53;;;17.02;74.66
15444;BME280;7822;48.146;11.576;2022-10-16T00:54:04;95482.88;;;17.00;74.75
15444;BME280;7822;48.146;11.576;2022-10-16T00:56:33;95486.91;;;16.95;75.00
15444;BME280;7822;48.146;11.576;2022-10-16T00:59:03;95492.19;;;17.03;74.50
15444;BME280;7822;48.146;11.576;2022-10-16T01:01:34;95478.59;;;16.99;74.30
15444;BME280;7822;48.146;11.576;2022-10-16T01:04:02;95475.47;;;16.96;74.93
15444;BME280;7822;48.146;11.576;2022-10-16T01:06:35;95491.47;;;16.93;74.54
15444;BME280;7822;48.146;11.576;2022-10-16T01:09:14;95491.94;;;16.88;74.61
15444;BME280;7822;48.146;11.576;2022-10-16T01:11:56;95502.69;;;16.77;75.06
15444;BME280;7822;48.146;11.576;2022-10-16T01:14:31;95503.09;;;16.65;75.52
15444;BME280;7822;48.146;11.576;2022-10-16T01:17:06;95501.97;;;16.67;75.70
15444;BME280;7822;48.146;11.576;2022-10-16T01:19:49;95508.34;;;16.65;75.45
15444;BME280;7822;48.146;11.576;2022-10-16T01:22:20;95504.66;;;16.58;75.41
15444;BME280;7822;48.146;11.576;2022-10-16T01:24:53;95506.78;;;16.54;75.60
15444;BME280;7822;48.146;11.576;2022-10-16T01:27:25;95506.78;;;16.54;75.91
15444;BME280;7822;48.146;11.576;2022-10-16T01:30:00;95511.03;;;16.55;75.87
15444;BME280;7822;48.146;11.576;2022-10-16T01:32:33;95517.09;;;16.56;75.77
15444;BME280;7822;48.146;11.576;2022-10-16T01:35:09;95508.88;;;16.51;76.01
15444;BME280;7822;48.146;11.576;2022-10-16T01:37:40;95507.06;;;16.51;75.63
15444;BME280;7822;48.146;11.576;2022-10-16T01:40:11;95498.53;;;16.49;76.05
15444;BME280;7822;48.146;11.576;2022-10-16T01:42:45;95502.66;;;16.52;76.05
15444;BME280;7822;48.146;11.576;2022-10-16T01:45:17;95496.81;;;16.58;75.77
15444;BME280;7822;48.146;11.576;2022-10-16T01:47:47;95497.28;;;16.53;75.73
15444;BME280;7822;48.146;11.576;2022-10-16T01:50:18;95492.03;;;16.53;76.02
15444;BME280;7822;48.146;11.576;2022-10-16T01:52:49;95485.38;;;16.59;75.44
15444;BME280;7822;48.146;11.576;2022-10-16T01:55:29;95489.56;;;16.52;76.07
15444;BME280;7822;48.146;11.576;2022-10-16T01:58:01;95482.28;;;16.46;76.55
15444;BME280;7822;48.146;11.576;2022-10-16T02:00:31;95483.72;;;16.58;75.54
15444;BME280;7822;48.146;11.576;2022-10-16T02:03:01;95479.06;;;16.69;74.57
15444;BME280;7822;48.146;11.576;2022-10-16T02:05:32;95474.78;;;16.68;74.87
15444;BME280;7822;48.146;11.576;2022-10-16T02:08:02;95477.56;;;16.67;74.68
15444;BME280;7822;48.146;11.576;2022-10-16T02:10:31;95475.69;;;16.59;75.11
15444;BME280;7822;48.146;11.576;2022-10-16T02:13:04;95486.03;;;16.61;75.16
15444;BME280;7822;48.146;11.576;2022-10-16T02:15:33;95479.81;;;16.62;74.80
15444;BME280;7822;48.146;11.576;2022-10-16T02:18:01;95494.25;;;16.66;74.56
15444;BME280;7822;48.146;11.576;2022-10-16T02:20:32;95481.75;;;16.60;74.87
15444;BME280;7822;48.146;11.576;2022-10-16T02:23:03;95478.28;;;16.51;75.46
15444;BME280;7822;48.146;11.576;2022-10-16T02:25:33;95483.09;;;16.64;74.35
15444;BME280;7822;48.146;11.576;2022-10-16T02:28:06;95488.88;;;16.67;74.24
15444;BME280;7822;48.146;11.576;2022-10-16T02:30:39;95490.00;;;16.65;74.42
15444;BME280;7822;48.146;11.576;2022-10-16T02:33:10;95488.53;;;16.70;73.63
15444;BME280;7822;48.146;11.576;2022-10-16T02:35:41;95488.22;;;16.65;73.90
15444;BME280;7822;48.146;11.576;2022-10-16T02:38:09;95495.22;;;16.65;73.96
15444;BME280;7822;48.146;11.576;2022-10-16T02:40:39;95495.53;;;16.62;74.42
15444;BME280;7822;48.146;11.576;2022-10-16T02:43:08;95503.72;;;16.41;74.69
15444;BME280;7822;48.146;11.576;2022-10-16T02:45:37;95501.88;;;16.42;75.21
15444;BME280;7822;48.146;11.576;2022-10-16T02:48:05;95504.91;;;16.29;75.78
15444;BME280;7822;48.146;11.576;2022-10-16T02:50:32;95504.06;;;16.28;75.86
15444;BME280;7822;48.146;11.576;2022-10-16T02:53:00;95505.72;;;16.47;74.48
15444;BME280;7822;48.146;11.576;2022-10-16T02:55:28;95505.03;;;16.45;74.94
15444;BME280;7822;48.146;11.576;2022-10-16T02:57:55;95509.28;;;16.46;74.70
15444;BME280;7822;48.146;11.576;2022-10-16T03:00:25;95513.84;;;16.44;74.94
15444;BME280;7822;48.146;11.576;2022-10-16T03:02:52;95508.94;;;16.59;74.11
15444;BME280;7822;48.146;11.576;2022-10-16T03:05:20;95507.88;;;16.69;73.43
15444;BME280;7822;48.146;11.576;2022-10-16T03:07:53;95504.97;;;16.55;74.10
15444;BME280;7822;48.146;11.576;2022-10-16T03:10:20;95508.25;;;16.39;74.72
15444;BME280;7822;48.146;11.576;2022-10-16T03:12:48;95491.88;;;16.37;74.61
15444;BME280;7822;48.146;11.576;2022-10-16T03:15:16;95499.50;;;16.30;74.99
15444;BME280;7822;48.146;11.576;2022-10-16T03:17:45;95508.56;;;16.36;74.80
15444;BME280;7822;48.146;11.576;2022-10-16T03:20:13;95504.22;;;16.27;75.03
15444;BME280;7822;48.146;11.576;2022-10-16T03:22:40;95496.88;;;16.30;75.14
15444;BME280;7822;48.146;11.576;2022-10-16T03:25:08;95503.53;;;16.43;74.34
15444;BME280;7822;48.146;11.576;2022-10-16T03:27:36;95506.53;;;16.65;73.27
15444;BME280;7822;48.146;11.576;2022-10-16T03:30:04;95506.34;;;16.59;73.33
15444;BME280;7822;48.146;11.576;2022-10-16T03:32:32;95508.88;;;16.51;73.22
15444;BME280;7822;48.146;11.576;2022-10-16T03:35:07;95505.06;;;16.27;74.12
15444;BME280;7822;48.146;11.576;2022-10-16T03:37:35;95502.22;;;16.21;75.01
15444;BME280;7822;48.146;11.576;2022-10-16T03:40:03;95506.34;;;16.23;75.41
15444;BME280;7822;48.146;11.576;2022-10-16T03:42:31;95506.91;;;16.35;74.16
15444;BME280;7822;48.146;11.576;2022-10-16T03:44:59;95511.78;;;16.30;74.49
15444;BME280;7822;48.146;11.576;2022-10-16T03:47:27;95513.81;;;16.54;73.03
15444;BME280;7822;48.146;11.576;2022-10-16T03:49:54;95527.94;;;16.43;73.02
15444;BME280;7822;48.146;11.576;2022-10-16T03:52:23;95527.50;;;16.30;73.79
15444;BME280;7822;48.146;11.576;2022-10-16T03:54:51;95518.59;;;16.05;74.38
15444;BME280;7822;48.146;11.576;2022-10-16T03:57:19;95523.06;;;15.95;75.43
15444;BME280;7822;48.146;11.576;2022-10-16T03:59:46;95519.03;;;16.01;75.46
15444;BME280;7822;48.146;11.576;2022-10-16T04:02:14;95506.34;;;16.06;74.85
15444;BME280;7822;48.146;11.576;2022-10-16T04:04:42;95512.91;;;16.10;74.80
15444;BME280;7822;48.146;11.576;2022-10-16T04:07:09;95522.25;;;16.12;74.51
15444;BME280;7822;48.146;11.576;2022-10-16T04:09:38;95513.97;;;16.17;74.20
15444;BME280;7822;48.146;11.576;2022-10-16T04:12:06;95521.50;;;16.20;74.12
15444;BME280;7822;48.146;11.576;2022-10-16T04:14:34;95511.91;;;16.11;74.99
15444;BME280;7822;48.146;11.576;2022-10-16T04:17:01;95517.38;;;16.00;74.98
15444;BME280;7822;48.146;11.576;2022-10-16T04:19:29;95512.13;;;16.00;75.63
15444;BME280;7822;48.146;11.576;2022-10-16T04:21:57;95509.47;;;16.09;74.93
15444;BME280;7822;48.146;11.576;2022-10-16T04:24:24;95513.88;;;16.09;75.36
15444;BME280;7822;48.146;11.576;2022-10-16T04:26:53;95516.47;;;16.26;74.25
15444;BME280;7822;48.146;11.576;2022-10-16T04:29:21;95514.31;;;16.40;73.32
15444;BME280;7822;48.146;11.576;2022-10-16T04:31:48;95518.22;;;16.36;73.10
15444;BME280;7822;48.146;11.576;2022-10-16T04:34:16;95515.06;;;16.32;73.54
15444;BME280;7822;48.146;11.576;2022-10-16T04:36:44;95523.22;;;16.47;72.84
15444;BME280;7822;48.146;11.576;2022-10-16T04:39:13;95523.00;;;16.58;72.36
15444;BME280;7822;48.146;11.576;2022-10-16T04:41:41;95519.56;;;16.57;71.88
15444;BME280;7822;48.146;11.576;2022-10-16T04:44:10;95518.88;;;16.55;71.82
15444;BME280;7822;48.146;11.576;2022-10-16T04:46:38;95523.63;;;16.52;72.61
15444;BME280;7822;48.146;11.576;2022-10-16T04:49:05;95523.66;;;16.42;72.74
15444;BME280;7822;48.146;11.576;2022-10-16T04:51:33;95530.25;;;16.28;73.23
15444;BME280;7822;48.146;11.576;2022-10-16T04:54:01;95525.78;;;16.39;73.17
15444;BME280;7822;48.146;11.576;2022-10-16T04:56:29;95513.13;;;16.34;73.23
15444;BME280;7822;48.146;11.576;2022-10-16T04:58:57;95514.69;;;16.45;72.43
15444;BME280;7822;48.146;11.576;2022-10-16T05:01:26;95504.47;;;16.51;72.62
15444;BME280;7822;48.146;11.576;2022-10-16T05:03:53;95504.84;;;16.56;72.31
15444;BME280;7822;48.146;11.576;2022-10-16T05:06:21;95523.31;;;16.55;71.95
15444;BME280;7822;48.146;11.576;2022-10-16T05:08:48;95514.09;;;16.51;72.44
15444;BME280;7822;48.146;11.576;2022-10-16T05:11:16;95521.56;;;16.46;72.30
15444;BME280;7822;48.146;11.576;2022-10-16T05:13:44;95518.88;;;16.38;72.53
15444;BME280;7822;48.146;11.576;2022-10-16T05:16:12;95522.47;;;16.37;72.94
15444;BME280;7822;48.146;11.576;2022-10-16T05:18:41;95525.56;;;16.32;72.92
15444;BME280;7822;48.146;11.576;2022-10-16T05:21:08;95519.88;;;16.19;73.69
15444;BME280;7822;48.146;11.576;2022-10-16T05:23:36;95511.56;;;16.23;73.30
15444;BME280;7822;48.146;11.576;2022-10-16T05:26:04;95510.53;;;16.16;73.42
15444;BME280;7822;48.146;11.576;2022-10-16T05:28:32;95518.50;;;16.15;74.34
15444;BME280;7822;48.146;11.576;2022-10-16T05:31:04;95529.06;;;16.41;73.07
15444;BME280;7822;48.146;11.576;2022-10-16T05:33:31;95531.53;;;16.42;72.47
15444;BME280;7822;48.146;11.576;2022-10-16T05:36:02;95529.56;;;16.26;73.15
15444;BME280;7822;48.146;11.576;2022-10-16T05:38:30;95529.41;;;16.10;74.13
15444;BME280;7822;48.146;11.576;2022-10-16T05:40:58;95535.91;;;16.06;74.67
15444;BME280;7822;48.146;11.576;2022-10-16T05:43:27;95540.56;;;15.95;74.77
15444;BME280;7822;48.146;11.576;2022-10-16T05:45:57;95543.03;;;15.96;75.07
15444;BME280;7822;48.146;11.576;2022-10-16T05:48:25;95550.88;;;15.96;75.24
15444;BME280;7822;48.146;11.576;2022-10-16T05:50:57;95549.81;;;15.89;75.27
15444;BME280;7822;48.146;11.576;2022-10-16T05:53:29;95551.47;;;15.90;75.30
15444;BME280;7822;48.146;11.576;2022-10-16T05:55:58;95558.09;;;15.85;75.54
15444;BME280;7822;48.146;11.576;2022-10-16T05:58:30;95561.81;;;15.82;75.74
15444;BME280;7822;48.146;11.576;2022-10-16T06:00:59;95558.88;;;15.95;75.76
15444;BME280;7822;48.146;11.576;2022-10-16T06:03:27;95566.59;;;16.14;74.29
15444;BME280;7822;48.146;11.576;2022-10-16T06:05:55;95558.69;;;16.06;74.57
15444;BME280;7822;48.146;11.576;2022-10-16T06:08:23;95561.56;;;16.03;74.36
15444;BME280;7822;48.146;11.576;2022-10-16T06:11:02;95558.22;;;16.28;73.98
15444;BME280;7822;48.146;11.576;2022-10-16T06:13:30;95559.97;;;16.55;72.33
15444;BME280;7822;48.146;11.576;2022-10-16T06:15:58;95561.81;;;16.45;72.18
15444;BME280;7822;48.146;11.576;2022-10-16T06:18:27;95565.72;;;16.41;72.66
15444;BME280;7822;48.146;11.576;2022-10-16T06:20:56;95570.78;;;16.24;73.36
15444;BME280;7822;48.146;11.576;2022-10-16T06:23:24;95564.88;;;16.22;73.54
15444;BME280;7822;48.146;11.576;2022-10-16T06:25:52;95575.84;;;16.08;74.26
15444;BME280;7822;48.146;11.576;2022-10-16T06:28:28;95576.09;;;16.15;74.24
15444;BME280;7822;48.146;11.576;2022-10-16T06:31:04;95581.63;;;16.12;74.34
15444;BME280;7822;48.146;11.576;2022-10-16T06:33:38;95595.78;;;16.19;73.80
15444;BME280;7822;48.146;11.576;2022-10-16T06:36:10;95580.56;;;16.05;74.22
15444;BME280;7822;48.146;11.576;2022-10-16T06:38:38;95596.31;;;15.95;74.88
15444;BME280;7822;48.146;11.576;2022-10-16T06:41:07;95592.78;;;15.87;74.90
15444;BME280;7822;48.146;11.576;2022-10-16T06:43:38;95591.59;;;15.81;75.14
15444;BME280;7822;48.146;11.576;2022-10-16T06:46:10;95599.28;;;15.83;75.84
15444;BME280;7822;48.146;11.576;2022-10-16T06:48:38;95606.94;;;15.94;75.56
15444;BME280;7822;48.146;11.576;2022-10-16T06:51:10;95614.06;;;16.01;75.39
15444;BME280;7822;48.146;11.576;2022-10-16T06:53:42;95611.00;;;16.06;74.52
15444;BME280;7822;48.146;11.576;2022-10-16T06:56:28;95612.06;;;16.13;74.46
15444;BME280;7822;48.146;11.576;2022-10-16T06:58:57;95609.59;;;16.11;74.35
15444;BME280;7822;48.146;11.576;2022-10-16T07:01:26;95609.06;;;16.08;74.18
15444;BME280;7822;48.146;11.576;2022-10-16T07:03:54;95612.41;;;16.00;74.74
15444;BME280;7822;48.146;11.576;2022-10-16T07:06:23;95618.22;;;15.94;75.01
15444;BME280;7822;48.146;11.576;2022-10-16T07:08:51;95625.81;;;16.15;74.63
15444;BME280;7822;48.146;11.576;2022-10-16T07:11:21;95627.81;;;16.48;72.25
15444;BME280;7822;48.146;11.576;2022-10-16T07:13:49;95626.44;;;16.71;71.24
15444;BME280;7822;48.146;11.576;2022-10-16T07:16:25;95629.88;;;16.72;70.94
15444;BME280;7822;48.146;11.576;2022-10-16T07:18:54;95627.41;;;16.70;71.37
15444;BME280;7822;48.146;11.576;2022-10-16T07:21:27;95632.72;;;16.61;71.58
15444;BME280;7822;48.146;11.576;2022-10-16T07:23:56;95627.13;;;16.46;72.69
15444;BME280;7822;48.146;11.576;2022-10-16T07:26:25;95635.47;;;16.59;71.97
15444;BME280;7822;48.146;11.576;2022-10-16T07:28:53;95633.69;;;16.60;71.75
15444;BME280;7822;48.146;11.576;2022-10-16T07:31:22;95632.84;;;16.59;72.25
15444;BME280;7822;48.146;11.576;2022-10-16T07:33:51;95647.25;;;16.46;72.58
15444;BME280;7822;48.146;11.576;2022-10-16T07:36:20;95644.22;;;16.50;72.80
15444;BME280;7822;48.146;11.576;2022-10-16T07:38:48;95651.59;;;16.82;71.28
15444;BME280;7822;48.146;11.576;2022-10-16T07:41:20;95655.41;;;16.87;71.04
15444;BME280;7822;48.146;11.576;2022-10-16T07:43:49;95658.63;;;16.81;70.84
15444;BME280;7822;48.146;11.576;2022-10-16T07:46:18;95667.16;;;16.83;71.28
15444;BME280;7822;48.146;11.576;2022-10-16T07:48:47;95669.09;;;16.81;71.46
15444;BME280;7822;48.146;11.576;2022-10-16T07:51:16;95666.56;;;16.89;71.13
15444;BME280;7822;48.146;11.576;2022-10-16T07:53:44;95671.19;;;16.95;70.72
15444;BME280;7822;48.146;11.576;2022-10-16T07:56:13;95675.84;;;17.01;70.31
15444;BME280;7822;48.146;11.576;2022-10-16T07:58:41;95672.91;;;17.04;70.31
15444;BME280;7822;48.146;11.576;2022-10-16T08:01:10;95674.19;;;17.00;70.65
15444;BME280;7822;48.146;11.576;2022-10-16T08:03:38;95677.94;;;17.16;69.91
15444;BME280;7822;48.146;11.576;2022-10-16T08:06:07;95683.59;;;17.29;69.23
15444;BME280;7822;48.146;11.576;2022-10-16T08:08:35;95682.97;;;17.35;68.88
15444;BME280;7822;48.146;11.576;2022-10-16T08:11:05;95676.63;;;17.37;68.98
15444;BME280;7822;48.146;11.576;2022-10-16T08:13:32;95683.41;;;17.48;68.51
15444;BME280;7822;48.146;11.576;2022-10-16T08:16:05;95684.31;;;17.56;67.67
15444;BME280;7822;48.146;11.576;2022-10-16T08:18:34;95677.63;;;17.62;67.68
15444;BME280;7822;48.146;11.576;2022-10-16T08:21:03;95677.84;;;17.68;67.30
15444;BME280;7822;48.146;11.576;2022-10-16T08:23:33;95681.63;;;17.74;66.97
15444;BME280;7822;48.146;11.576;2022-10-16T08:26:07;95686.41;;;17.78;66.61
15444;BME280;7822;48.146;11.576;2022-10-16T08:28:37;95690.91;;;17.86;66.37
15444;BME280;7822;48.146;11.576;2022-10-16T08:31:11;95690.44;;;17.91;68.54
15444;BME280;7822;48.146;11.576;2022-10-16T08:33:52;95692.00;;;18.09;69.10
15444;BME280;7822;48.146;11.576;2022-10-16T08:37:00;95688.31;;;18.28;68.60
15444;BME280;7822;48.146;11.576;2022-10-16T08:39:29;95692.75;;;18.35;68.25
15444;BME280;7822;48.146;11.576;2022-10-16T08:42:10;95696.78;;;18.47;67.92
15444;BME280;7822;48.146;11.576;2022-10-16T08:45:08;95701.41;;;18.62;66.35
15444;BME280;7822;48.146;11.576;2022-10-16T08:47:48;95700.13;;;18.66;64.33
15444;BME280;7822;48.146;11.576;2022-10-16T08:50:22;95704.72;;;18.64;64.01
15444;BME280;7822;48.146;11.576;2022-10-16T08:52:51;95705.72;;;18.71;63.10
15444;BME280;7822;48.146;11.576;2022-10-16T08:55:30;95710.34;;;18.77;61.97
15444;BME280;7822;48.146;11.576;2022-10-16T08:58:00;95719.88;;;18.78;61.90
15444;BME280;7822;48.146;11.576;2022-10-16T09:00:28;95720.03;;;18.84;61.01
15444;BME280;7822;48.146;11.576;2022-10-16T09:03:04;95718.41;;;18.91;60.49
15444;BME280;7822;48.146;11.576;2022-10-16T09:05:49;95727.63;;;18.95;60.48
15444;BME280;7822;48.146;11.576;2022-10-16T09:08:24;95727.63;;;19.03;60.49
15444;BME280;7822;48.146;11.576;2022-10-16T09:10:57;95727.63;;;19.03;60.53
15444;BME280;7822;48.146;11.576;2022-10-16T09:13:29;95727.16;;;19.08;60.90
15444;BME280;7822;48.146;11.576;2022-10-16T09:16:14;95732.75;;;19.13;61.04
15444;BME280;7822;48.146;11.576;2022-10-16T09:18:48;95731.13;;;19.20;60.82
15444;BME280;7822;48.146;11.576;2022-10-16T09:21:23;95721.44;;;19.20;61.10
15444;BME280;7822;48.146;11.576;2022-10-16T09:23:54;95717.66;;;19.31;60.81
15444;BME280;7822;48.146;11.576;2022-10-16T09:26:25;95718.97;;;19.27;61.10
15444;BME280;7822;48.146;11.576;2022-10-16T09:28:53;95724.59;;;19.40;61.13
15444;BME280;7822;48.146;11.576;2022-10-16T09:31:22;95725.09;;;19.36;60.88
15444;BME280;7822;48.146;11.576;2022-10-16T09:33:53;95727.22;;;19.48;60.36
15444;BME280;7822;48.146;11.576;2022-10-16T09:36:23;95727.41;;;19.63;59.83
15444;BME280;7822;48.146;11.576;2022-10-16T09:39:04;95729.69;;;19.66;59.22
15444;BME280;7822;48.146;11.576;2022-10-16T09:41:35;95728.84;;;19.73;58.89
15444;BME280;7822;48.146;11.576;2022-10-16T09:44:17;95728.06;;;19.65;59.71
15444;BME280;7822;48.146;11.576;2022-10-16T09:46:46;95736.75;;;19.65;59.66
15444;BME280;7822;48.146;11.576;2022-10-16T09:49:22;95737.22;;;19.77;59.39
15444;BME280;7822;48.146;11.576;2022-10-16T09:51:51;95736.88;;;19.88;59.02
15444;BME280;7822;48.146;11.576;2022-10-16T09:54:30;95744.78;;;19.96;57.39
15444;BME280;7822;48.146;11.576;2022-10-16T09:57:06;95740.66;;;20.02;56.53
15444;BME280;7822;48.146;11.576;2022-10-16T09:59:45;95746.25;;;19.98;56.74
15444;BME280;7822;48.146;11.576;2022-10-16T10:02:14;95750.00;;;20.12;56.02
15444;BME280;7822;48.146;11.576;2022-10-16T10:04:48;95748.69;;;20.16;56.24
15444;BME280;7822;48.146;11.576;2022-10-16T10:07:20;95751.69;;;20.21;56.05
15444;BME280;7822;48.146;11.576;2022-10-16T10:09:53;95743.44;;;20.24;55.97
15444;BME280;7822;48.146;11.576;2022-10-16T10:12:29;95741.97;;;20.22;55.98
15444;BME280;7822;48.146;11.576;2022-10-16T10:15:04;95740.78;;;20.16;56.39
15444;BME280;7822;48.146;11.576;2022-10-16T10:17:33;95739.31;;;20.22;56.67
15444;BME280;7822;48.146;11.576;2022-10-16T10:20:18;95744.94;;;20.11;57.23
15444;BME280;7822;48.146;11.576;2022-10-16T10:22:48;95739.63;;;20.27;56.29
15444;BME280;7822;48.146;11.576;2022-10-16T10:25:31;95742.25;;;20.19;56.54
15444;BME280;7822;48.146;11.576;2022-10-16T10:28:10;95738.69;;;20.58;54.82
15444;BME280;7822;48.146;11.576;2022-10-16T10:30:48;95750.25;;;20.57;54.95
15444;BME280;7822;48.146;11.576;2022-10-16T10:33:28;95744.19;;;20.41;55.47
15444;BME280;7822;48.146;11.576;2022-10-16T10:36:08;95740.22;;;20.53;54.90
15444;BME280;7822;48.146;11.576;2022-10-16T10:38:45;95745.69;;;20.43;55.30
15444;BME280;7822;48.146;11.576;2022-10-16T10:44:31;95737.41;;;20.54;55.39
15444;BME280;7822;48.146;11.576;2022-10-16T10:47:12;95736.31;;;20.80;54.13
15444;BME280;7822;48.146;11.576;2022-10-16T10:49:55;95738.94;;;20.80;53.86
15444;BME280;7822;48.146;11.576;2022-10-16T10:52:40;95738.31;;;20.69;54.20
15444;BME280;7822;48.146;11.576;2022-10-16T10:55:15;95735.28;;;20.81;53.81
15444;BME280;7822;48.146;11.576;2022-10-16T10:57:57;95739.03;;;20.55;54.14
15444;BME280;7822;48.146;11.576;2022-10-16T11:00:35;95733.56;;;21.04;52.56
15444;BME280;7822;48.146;11.576;2022-10-16T11:03:13;95736.56;;;20.93;53.37
15444;BME280;7822;48.146;11.576;2022-10-16T11:05:47;95732.84;;;20.79;53.82
15444;BME280;7822;48.146;11.576;2022-10-16T11:08:19;95733.81;;;20.86;53.39
15444;BME280;7822;48.146;11.576;2022-10-16T11:10:53;95732.19;;;20.77;53.43
15444;BME280;7822;48.146;11.576;2022-10-16T11:13:35;95724.88;;;21.18;47.83
15444;BME280;7822;48.146;11.576;2022-10-16T11:16:13;95728.78;;;21.30;47.46
15444;BME280;7822;48.146;11.576;2022-10-16T11:18:50;95728.50;;;21.39;46.58
15444;BME280;7822;48.146;11.576;2022-10-16T11:21:20;95738.06;;;21.18;47.73
15444;BME280;7822;48.146;11.576;2022-10-16T11:24:00;95734.09;;;21.45;46.60
15444;BME280;7822;48.146;11.576;2022-10-16T11:26:33;95734.53;;;21.48;47.14
15444;BME280;7822;48.146;11.576;2022-10-16T11:29:03;95731.63;;;21.20;47.95
15444;BME280;7822;48.146;11.576;2022-10-16T11:31:40;95730.16;;;21.18;48.33
15444;BME280;7822;48.146;11.576;2022-10-16T11:34:12;95727.03;;;21.37;48.55
15444;BME280;7822;48.146;11.576;2022-10-16T11:36:47;95728.28;;;21.49;48.03
15444;BME280;7822;48.146;11.576;2022-10-16T11:39:20;95730.41;;;21.54;48.59
15444;BME280;7822;48.146;11.576;2022-10-16T11:41:50;95724.66;;;21.50;48.47
15444;BME280;7822;48.146;11.576;2022-10-16T11:44:43;95726.28;;;21.51;47.53
15444;BME280;7822;48.146;11.576;2022-10-16T11:47:24;95723.84;;;21.50;46.68
15444;BME280;7822;48.146;11.576;2022-10-16T11:50:18;95719.81;;;21.76;45.60
15444;BME280;7822;48.146;11.576;2022-10-16T11:52:53;95727.97;;;21.89;43.67
15444;BME280;7822;48.146;11.576;2022-10-16T11:55:27;95735.47;;;22.00;43.40
15444;BME280;7822;48.146;11.576;2022-10-16T11:58:01;95726.25;;;22.11;43.30
15444;BME280;7822;48.146;11.576;2022-10-16T12:00:34;95726.44;;;22.09;42.84
15444;BME280;7822;48.146;11.576;2022-10-16T12:03:14;95728.44;;;22.07;43.88
15444;BME280;7822;48.146;11.576;2022-10-16T12:05:55;95731.41;;;21.90;44.24
15444;BME280;7822;48.146;11.576;2022-10-16T12:08:26;95731.06;;;21.93;44.51
15444;BME280;7822;48.146;11.576;2022-10-16T12:11:07;95730.34;;;21.99;43.39
15444;BME280;7822;48.146;11.576;2022-10-16T12:13:37;95727.78;;;21.91;43.66
15444;BME280;7822;48.146;11.576;2022-10-16T12:16:21;95730.78;;;21.88;44.27
15444;BME280;7822;48.146;11.576;2022-10-16T12:19:09;95739.00;;;21.93;45.00
15444;BME280;7822;48.146;11.576;2022-10-16T12:21:38;95734.00;;;22.12;43.23
15444;BME280;7822;48.146;11.576;2022-10-16T12:24:05;95725.00;;;22.07;43.14
15444;BME280;7822;48.146;11.576;2022-10-16T12:26:37;95725.63;;;22.09;43.30
15444;BME280;7822;48.146;11.576;2022-10-16T12:29:13;95725.00;;;22.07;43.07
15444;BME280;7822;48.146;11.576;2022-10-16T12:31:44;95721.88;;;22.03;43.69
15444;BME280;7822;48.146;11.576;2022-10-16T12:34:27;95719.31;;;22.10;44.29
15444;BME280;7822;48.146;11.576;2022-10-16T12:36:55;95727.00;;;22.20;45.77
15444;BME280;7822;48.146;11.576;2022-10-16T12:39:35;95732.66;;;22.31;45.89
15444;BME280;7822;48.146;11.576;2022-10-16T12:42:06;95725.63;;;22.24;46.75
15444;BME280;7822;48.146;11.576;2022-10-16T12:44:46;95731.91;;;22.08;47.04
15444;BME280;7822;48.146;11.576;2022-10-16T12:47:20;95724.50;;;22.03;46.99
15444;BME280;7822;48.146;11.576;2022-10-16T12:53:32;95712.03;;;21.97;46.27
15444;BME280;7822;48.146;11.576;2022-10-16T12:56:15;95720.59;;;22.14;46.52
15444;BME280;7822;48.146;11.576;2022-10-16T12:59:01;95718.59;;;21.79;47.30
15444;BME280;7822;48.146;11.576;2022-10-16T13:01:40;95725.41;;;21.59;48.05
15444;BME280;7822;48.146;11.576;2022-10-16T13:07:16;95715.69;;;22.11;46.65
15444;BME280;7822;48.146;11.576;2022-10-16T13:09:58;95715.22;;;22.07;46.66
15444;BME280;7822;48.146;11.576;2022-10-16T13:12:49;95713.22;;;22.24;46.13
15444;BME280;7822;48.146;11.576;2022-10-16T13:15:35;95713.69;;;21.98;47.08
15444;BME280;7822;48.146;11.576;2022-10-16T13:18:13;95716.69;;;22.10;46.16
15444;BME280;7822;48.146;11.576;2022-10-16T13:21:03;95723.88;;;21.79;47.88
15444;BME280;7822;48.146;11.576;2022-10-16T13:23:42;95732.00;;;21.77;47.17
15444;BME280;7822;48.146;11.576;2022-10-16T13:26:24;95719.31;;;21.73;47.16
15444;BME280;7822;48.146;11.576;2022-10-16T13:28:58;95719.75;;;21.99;46.50
15444;BME280;7822;48.146;11.576;2022-10-16T13:31:28;95723.72;;;22.18;46.47
15444;BME280;7822;48.146;11.576;2022-10-16T13:33:58;95729.28;;;22.37;45.80
15444;BME280;7822;48.146;11.576;2022-10-16T13:36:28;95723.63;;;22.26;46.86